createdAt,value
2023-05-03T00:00:10.559Z,29.66
2023-05-03T00:02:40.534Z,29.60
2023-05-03T00:05:12.381Z,29.54
2023-05-03T00:07:40.354Z,29.54
2023-05-03T00:10:08.756Z,29.47
2023-05-03T00:12:35.292Z,29.36
2023-05-03T00:15:01.856Z,29.32
2023-05-03T00:17:28.473Z,29.27
2023-05-03T00:19:56.251Z,29.31
2023-05-03T00:22:23.343Z,29.16
2023-05-03T00:24:52.785Z,29.15
2023-05-03T00:27:19.623Z,29.17
2023-05-03T00:29:46.995Z,29.06
2023-05-03T00:32:13.586Z,29.01
2023-05-03T00:34:40.125Z,29.01
2023-05-03T00:37:06.640Z,28.91
2023-05-03T00:39:33.977Z,28.93
2023-05-03T00:42:02.277Z,28.73
2023-05-03T00:44:29.931Z,28.83
2023-05-03T00:46:57.256Z,28.71
2023-05-03T00:49:26.931Z,28.72
2023-05-03T00:51:54.542Z,28.82
2023-05-03T00:54:21.790Z,28.83
2023-05-03T00:56:51.914Z,28.96
2023-05-03T00:59:20.032Z,28.94
2023-05-03T01:01:51.827Z,29.00
2023-05-03T01:04:20.120Z,28.99
2023-05-03T01:07:10.359Z,29.12
2023-05-03T01:09:51.998Z,29.16
2023-05-03T01:12:40.832Z,29.07
2023-05-03T01:15:37.126Z,29.20
2023-05-03T01:18:12.262Z,29.22
2023-05-03T01:20:44.090Z,29.30
2023-05-03T01:23:32.149Z,29.34
2023-05-03T01:25:58.703Z,29.40
2023-05-03T01:28:25.444Z,29.39
2023-05-03T01:30:54.068Z,29.43
2023-05-03T01:33:36.819Z,29.54
2023-05-03T01:36:26.484Z,29.60
2023-05-03T01:38:53.824Z,29.65
2023-05-03T01:41:23.108Z,29.69
2023-05-03T01:43:52.090Z,29.75
2023-05-03T01:46:18.615Z,29.88
2023-05-03T01:48:45.193Z,29.80
2023-05-03T01:51:11.945Z,29.76
2023-05-03T01:53:38.548Z,29.88
2023-05-03T01:56:05.559Z,29.84
2023-05-03T01:58:32.915Z,29.81
2023-05-03T02:00:59.561Z,29.91
2023-05-03T02:03:26.688Z,29.93
2023-05-03T02:05:53.750Z,30.09
2023-05-03T02:08:20.855Z,30.09
2023-05-03T02:10:47.388Z,30.02
2023-05-03T02:13:17.011Z,30.03
2023-05-03T02:15:43.641Z,30.07
2023-05-03T02:18:10.453Z,30.19
2023-05-03T02:20:38.043Z,30.03
2023-05-03T02:23:04.943Z,30.12
2023-05-03T02:25:31.921Z,30.15
2023-05-03T02:27:58.441Z,30.16
2023-05-03T02:30:25.255Z,30.32
2023-05-03T02:32:51.872Z,30.38
2023-05-03T02:35:19.963Z,30.35
2023-05-03T02:37:46.585Z,30.36
2023-05-03T02:40:13.148Z,30.36
2023-05-03T02:42:41.589Z,30.25
2023-05-03T02:45:08.995Z,30.35
2023-05-03T02:47:35.589Z,30.23
2023-05-03T02:50:02.353Z,30.29
2023-05-03T02:52:32.220Z,30.33
2023-05-03T02:54:58.833Z,30.30
2023-05-03T02:57:25.593Z,30.13
2023-05-03T02:59:52.301Z,30.22
2023-05-03T03:02:19.548Z,30.31
2023-05-03T03:04:46.111Z,30.28
2023-05-03T03:07:12.675Z,30.26
2023-05-03T03:09:39.303Z,30.25
2023-05-03T03:12:06.018Z,30.26
2023-05-03T03:14:33.880Z,30.38
2023-05-03T03:17:02.573Z,30.35
2023-05-03T03:19:29.594Z,30.45
2023-05-03T03:21:56.211Z,30.55
2023-05-03T03:24:24.618Z,30.43
2023-05-03T03:26:52.578Z,30.45
2023-05-03T03:29:19.549Z,30.50
2023-05-03T03:31:46.243Z,30.53
2023-05-03T03:34:14.553Z,30.43
2023-05-03T03:36:41.690Z,30.52
2023-05-03T03:39:08.330Z,30.39
2023-05-03T03:41:36.954Z,30.33
2023-05-03T03:44:04.321Z,30.26
2023-05-03T03:46:31.020Z,30.19
2023-05-03T03:48:58.949Z,30.15
2023-05-03T03:51:27.869Z,30.13
2023-05-03T03:53:54.621Z,30.11
2023-05-03T03:56:25.225Z,29.99
2023-05-03T03:58:53.025Z,30.00
2023-05-03T04:01:19.900Z,29.98
2023-05-03T04:03:49.850Z,30.02
2023-05-03T04:06:17.093Z,29.99
2023-05-03T04:08:43.675Z,30.03
2023-05-03T04:11:15.297Z,30.10
2023-05-03T04:13:52.968Z,30.19
2023-05-03T04:16:20.025Z,30.25
2023-05-03T04:18:46.932Z,30.34
2023-05-03T04:21:13.846Z,30.37
2023-05-03T04:23:41.757Z,30.44
2023-05-03T04:26:17.219Z,30.56
2023-05-03T04:28:55.093Z,30.65
2023-05-03T04:31:22.668Z,30.66
2023-05-03T04:33:52.572Z,30.73
2023-05-03T04:36:19.156Z,30.83
2023-05-03T04:38:47.730Z,30.86
2023-05-03T04:41:16.108Z,30.90
2023-05-03T04:43:43.780Z,31.00
2023-05-03T04:46:11.563Z,31.01
2023-05-03T04:48:41.110Z,31.16
2023-05-03T04:51:08.192Z,30.92
2023-05-03T04:53:34.926Z,31.17
2023-05-03T04:56:08.023Z,31.08
2023-05-03T04:58:37.859Z,31.38
2023-05-03T05:01:05.662Z,31.38
2023-05-03T05:03:32.794Z,31.43
2023-05-03T05:06:03.895Z,31.65
2023-05-03T05:08:32.004Z,31.69
2023-05-03T05:10:58.752Z,31.85
2023-05-03T05:13:29.962Z,31.91
2023-05-03T05:15:56.939Z,32.07
2023-05-03T05:18:23.718Z,32.29
2023-05-03T05:20:52.421Z,32.45
2023-05-03T05:23:19.945Z,32.62
2023-05-03T05:25:47.825Z,32.61
2023-05-03T05:28:14.571Z,32.28
2023-05-03T05:30:41.532Z,32.56
2023-05-03T05:33:08.337Z,32.57
2023-05-03T05:35:35.560Z,32.89
2023-05-03T05:38:02.866Z,33.31
2023-05-03T05:40:30.991Z,33.65
2023-05-03T05:42:59.638Z,33.61
2023-05-03T05:45:27.957Z,33.65
2023-05-03T05:47:56.520Z,33.90
2023-05-03T05:50:23.065Z,34.22
2023-05-03T05:52:55.805Z,34.78
2023-05-03T05:55:24.883Z,34.94
2023-05-03T05:57:51.913Z,35.05
2023-05-03T06:00:22.824Z,35.56
2023-05-03T06:02:49.939Z,35.86
2023-05-03T06:05:20.649Z,36.45
2023-05-03T06:07:47.452Z,36.61
2023-05-03T06:10:14.223Z,36.71
2023-05-03T06:12:45.331Z,36.75
2023-05-03T06:15:17.331Z,36.91
2023-05-03T06:17:44.330Z,37.00
2023-05-03T06:20:11.910Z,37.28
2023-05-03T06:22:39.598Z,37.28
2023-05-03T06:25:07.507Z,38.07
2023-05-03T06:27:34.157Z,38.21
2023-05-03T06:30:01.002Z,38.51
2023-05-03T06:32:28.710Z,38.42
2023-05-03T06:34:55.763Z,38.51
2023-05-03T06:37:22.856Z,38.64
2023-05-03T06:39:50.479Z,38.95
2023-05-03T06:42:18.890Z,39.14
2023-05-03T06:44:46.058Z,39.18
2023-05-03T06:47:13.382Z,40.16
2023-05-03T06:49:40.149Z,42.36
2023-05-03T06:52:09.505Z,44.32
2023-05-03T06:54:40.399Z,45.89
2023-05-03T06:57:07.629Z,47.29
2023-05-03T06:59:34.148Z,48.14
2023-05-03T07:02:01.100Z,48.17
2023-05-03T07:04:27.974Z,48.19
2023-05-03T07:06:56.740Z,47.81
2023-05-03T07:09:32.072Z,47.93
2023-05-03T07:12:08.652Z,48.58
2023-05-03T07:14:35.548Z,46.59
2023-05-03T07:17:02.295Z,45.93
2023-05-03T07:19:29.972Z,42.63
2023-05-03T07:21:56.936Z,39.32
2023-05-03T07:24:25.670Z,39.56
2023-05-03T07:26:55.177Z,41.27
2023-05-03T07:29:21.873Z,41.69
2023-05-03T07:31:48.767Z,42.09
2023-05-03T07:34:16.566Z,41.71
2023-05-03T07:36:43.181Z,41.46
2023-05-03T07:39:09.893Z,41.13
2023-05-03T07:41:36.980Z,41.25
2023-05-03T07:44:03.676Z,40.37
2023-05-03T07:46:34.804Z,40.51
2023-05-03T07:49:03.878Z,38.84
2023-05-03T07:51:35.358Z,35.57
2023-05-03T07:54:02.152Z,35.13
2023-05-03T07:56:29.331Z,35.18
2023-05-03T07:59:07.500Z,36.50
2023-05-03T08:01:35.489Z,35.38
2023-05-03T08:04:02.285Z,34.50
2023-05-03T08:06:29.278Z,34.37
2023-05-03T08:08:56.149Z,35.01
2023-05-03T08:11:22.689Z,34.53
2023-05-03T08:13:49.532Z,36.01
2023-05-03T08:16:16.460Z,37.44
2023-05-03T08:18:43.399Z,38.53
2023-05-03T08:21:10.391Z,39.66
2023-05-03T08:23:37.248Z,40.94
2023-05-03T08:26:04.281Z,42.10
2023-05-03T08:28:31.196Z,43.00
2023-05-03T08:30:58.256Z,43.31
2023-05-03T08:33:25.137Z,43.36
2023-05-03T08:35:52.534Z,42.52
2023-05-03T08:38:19.063Z,43.47
2023-05-03T08:40:48.859Z,40.26
2023-05-03T08:43:19.799Z,41.08
2023-05-03T08:45:46.801Z,40.16
2023-05-03T08:48:14.662Z,40.17
2023-05-03T08:50:44.343Z,40.21
2023-05-03T08:53:11.732Z,39.24
2023-05-03T08:55:38.942Z,39.76
2023-05-03T08:58:10.653Z,40.16
2023-05-03T09:00:38.357Z,40.32
2023-05-03T09:03:05.114Z,40.06
2023-05-03T09:05:33.984Z,40.80
2023-05-03T09:08:12.517Z,42.21
2023-05-03T09:10:41.214Z,42.75
2023-05-03T09:13:08.672Z,42.78
2023-05-03T09:15:36.176Z,41.02
2023-05-03T09:18:16.066Z,41.29
2023-05-03T09:20:51.560Z,40.77
2023-05-03T09:23:31.500Z,39.27
2023-05-03T09:25:59.535Z,38.92
2023-05-03T09:28:26.873Z,38.80
2023-05-03T09:31:06.630Z,39.21
2023-05-03T09:33:33.684Z,39.56
2023-05-03T09:36:02.633Z,39.54
2023-05-03T09:38:31.316Z,40.11
2023-05-03T09:40:58.347Z,39.35
2023-05-03T09:43:25.709Z,40.05
2023-05-03T09:45:52.440Z,39.86
2023-05-03T09:48:23.466Z,38.68
2023-05-03T09:50:51.154Z,38.79
2023-05-03T09:53:21.339Z,38.75
2023-05-03T09:55:51.155Z,39.21
2023-05-03T09:58:18.623Z,37.83
2023-05-03T10:00:46.430Z,38.86
2023-05-03T10:03:20.478Z,39.16
2023-05-03T10:05:49.388Z,39.25
2023-05-03T10:08:26.964Z,39.52
2023-05-03T10:10:54.186Z,39.52
2023-05-03T10:13:24.449Z,40.01
2023-05-03T10:15:59.598Z,40.77
2023-05-03T10:18:31.933Z,40.45
2023-05-03T10:21:05.916Z,39.65
2023-05-03T10:23:32.437Z,40.39
2023-05-03T10:26:09.546Z,37.64
2023-05-03T10:28:39.350Z,37.27
2023-05-03T10:31:05.905Z,37.39
2023-05-03T10:33:35.184Z,38.55
2023-05-03T10:36:07.351Z,36.35
2023-05-03T10:38:34.085Z,37.07
2023-05-03T10:41:03.540Z,37.92
2023-05-03T10:43:32.866Z,38.41
2023-05-03T10:46:00.860Z,39.05
2023-05-03T10:48:28.540Z,38.35
2023-05-03T10:50:57.212Z,38.83
2023-05-03T10:53:43.340Z,37.28
2023-05-03T10:56:11.758Z,37.49
2023-05-03T10:58:46.912Z,36.63
2023-05-03T11:01:16.232Z,37.36
2023-05-03T11:04:08.338Z,38.70
2023-05-03T11:06:41.201Z,37.92
2023-05-03T11:09:09.770Z,39.62
2023-05-03T11:11:39.773Z,36.47
2023-05-03T11:14:08.273Z,34.61
2023-05-03T11:16:36.674Z,36.46
2023-05-03T11:19:03.548Z,37.15
2023-05-03T11:21:31.306Z,36.49
2023-05-03T11:23:59.390Z,36.45
2023-05-03T11:26:26.606Z,34.54
2023-05-03T11:28:54.239Z,37.02
2023-05-03T11:31:22.529Z,38.53
2023-05-03T11:33:50.807Z,39.72
2023-05-03T11:36:17.682Z,39.59
2023-05-03T11:38:45.271Z,39.57
2023-05-03T11:41:14.593Z,39.12
2023-05-03T11:43:43.256Z,39.70
2023-05-03T11:46:10.753Z,40.76
2023-05-03T11:48:41.424Z,40.70
2023-05-03T11:51:11.583Z,40.30
2023-05-03T11:53:39.851Z,39.68
2023-05-03T11:56:20.660Z,38.91
2023-05-03T11:58:54.467Z,38.75
2023-05-03T12:01:23.100Z,39.45
2023-05-03T12:03:54.147Z,40.83
2023-05-03T12:06:22.224Z,41.14
2023-05-03T12:08:50.140Z,40.94
2023-05-03T12:11:17.971Z,41.68
2023-05-03T12:13:45.450Z,40.03
2023-05-03T12:16:15.666Z,39.09
2023-05-03T12:18:58.578Z,38.51
2023-05-03T12:21:46.957Z,38.05
2023-05-03T12:24:20.760Z,35.42
2023-05-03T12:26:48.910Z,37.15
2023-05-03T12:29:19.565Z,37.01
2023-05-03T12:31:49.090Z,38.64
2023-05-03T12:34:32.373Z,38.22
2023-05-03T12:37:04.676Z,38.95
2023-05-03T12:39:32.874Z,37.07
2023-05-03T12:44:34.456Z,39.18
2023-05-03T12:47:02.436Z,39.51
2023-05-03T12:49:29.518Z,38.68
2023-05-03T12:52:18.495Z,38.02
2023-05-03T12:55:02.799Z,34.97
2023-05-03T12:57:31.256Z,35.57
2023-05-03T13:00:03.192Z,36.06
2023-05-03T13:05:08.085Z,36.20
2023-05-03T13:07:43.241Z,35.39
2023-05-03T13:12:40.801Z,38.21
2023-05-03T13:15:08.832Z,38.38
2023-05-03T13:17:35.521Z,39.44
2023-05-03T13:20:02.457Z,39.33
2023-05-03T13:22:30.104Z,40.29
2023-05-03T13:24:56.617Z,40.53
2023-05-03T13:27:23.595Z,41.43
2023-05-03T13:29:50.168Z,41.69
2023-05-03T13:32:17.424Z,41.13
2023-05-03T13:34:44.093Z,38.99
2023-05-03T13:37:11.781Z,37.27
2023-05-03T13:39:38.673Z,36.02
2023-05-03T13:42:05.332Z,38.69
2023-05-03T13:44:31.932Z,39.72
2023-05-03T13:46:58.706Z,40.38
2023-05-03T13:49:25.455Z,40.50
2023-05-03T13:51:52.142Z,37.15
2023-05-03T13:54:18.888Z,36.23
2023-05-03T13:56:46.892Z,36.00
2023-05-03T13:59:14.067Z,36.25
2023-05-03T14:01:42.949Z,34.77
2023-05-03T14:04:12.558Z,35.01
2023-05-03T14:06:41.407Z,35.33
2023-05-03T14:09:08.822Z,36.41
2023-05-03T14:11:35.558Z,34.71
2023-05-03T14:14:02.370Z,35.01
2023-05-03T14:18:58.672Z,37.57
2023-05-03T14:21:25.458Z,37.42
2023-05-03T14:23:53.006Z,38.57
2023-05-03T14:26:22.214Z,38.10
2023-05-03T14:28:48.952Z,38.94
2023-05-03T14:31:16.429Z,38.81
2023-05-03T14:33:43.051Z,38.18
2023-05-03T14:36:09.793Z,37.31
2023-05-03T14:38:37.291Z,37.08
2023-05-03T14:41:04.015Z,36.38
2023-05-03T14:43:31.045Z,37.18
2023-05-03T14:45:57.556Z,36.61
2023-05-03T14:48:24.126Z,34.55
2023-05-03T14:50:51.352Z,35.84
2023-05-03T14:53:18.786Z,35.14
2023-05-03T14:55:46.076Z,35.66
2023-05-03T14:58:16.032Z,35.81
2023-05-03T15:00:42.746Z,35.21
2023-05-03T15:03:13.939Z,36.44
2023-05-03T15:05:46.535Z,35.83
2023-05-03T15:08:22.165Z,36.97
2023-05-03T15:10:49.096Z,37.38
2023-05-03T15:13:16.356Z,37.97
2023-05-03T15:15:44.147Z,36.70
2023-05-03T15:18:11.620Z,37.68
2023-05-03T15:20:38.390Z,37.85
2023-05-03T15:23:05.168Z,38.12
2023-05-03T15:25:32.497Z,38.35
2023-05-03T15:28:02.641Z,37.14
2023-05-03T15:30:30.671Z,34.95
2023-05-03T15:32:57.982Z,35.30
2023-05-03T15:35:24.643Z,34.92
2023-05-03T15:37:51.398Z,35.42
2023-05-03T15:40:18.551Z,34.08
2023-05-03T15:42:45.099Z,35.78
2023-05-03T15:45:12.975Z,36.60
2023-05-03T15:47:39.620Z,35.41
2023-05-03T15:50:07.094Z,35.68
2023-05-03T15:52:34.786Z,36.96
2023-05-03T15:55:01.480Z,35.71
2023-05-03T15:57:30.108Z,35.86
2023-05-03T15:59:57.008Z,34.54
2023-05-03T16:02:24.475Z,34.76
2023-05-03T16:04:51.183Z,35.96
2023-05-03T16:07:17.845Z,36.18
2023-05-03T16:09:44.658Z,36.85
2023-05-03T16:12:12.313Z,36.00
2023-05-03T16:14:39.080Z,36.40
2023-05-03T16:17:06.112Z,35.72
2023-05-03T16:19:32.729Z,35.53
2023-05-03T16:21:59.782Z,35.91
2023-05-03T16:24:26.329Z,35.27
2023-05-03T16:26:53.001Z,35.30
2023-05-03T16:29:19.911Z,35.61
2023-05-03T16:31:46.992Z,35.96
2023-05-03T16:34:14.197Z,36.16
2023-05-03T16:36:43.085Z,35.49
2023-05-03T16:39:13.852Z,34.69
2023-05-03T16:41:41.322Z,35.19
2023-05-03T16:44:08.682Z,34.04
2023-05-03T16:46:36.907Z,34.66
2023-05-03T16:49:04.544Z,34.79
2023-05-03T16:51:31.736Z,33.43
2023-05-03T16:53:59.051Z,34.52
2023-05-03T16:56:26.292Z,34.42
2023-05-03T16:58:53.257Z,34.28
2023-05-03T17:01:19.857Z,34.80
2023-05-03T17:03:46.541Z,34.20
2023-05-03T17:06:13.628Z,33.12
2023-05-03T17:08:40.188Z,33.82
2023-05-03T17:11:09.269Z,33.64
2023-05-03T17:13:36.531Z,34.13
2023-05-03T17:16:08.714Z,33.88
2023-05-03T17:18:38.775Z,33.07
2023-05-03T17:21:06.903Z,34.08
2023-05-03T17:23:36.085Z,34.38
2023-05-03T17:26:04.057Z,34.52
2023-05-03T17:28:31.689Z,34.10
2023-05-03T17:30:59.387Z,34.75
2023-05-03T17:33:26.447Z,33.34
2023-05-03T17:35:53.909Z,34.05
2023-05-03T17:38:20.777Z,33.96
2023-05-03T17:40:47.855Z,32.14
2023-05-03T17:43:17.470Z,31.67
2023-05-03T17:45:47.403Z,32.36
2023-05-03T17:48:14.496Z,31.75
2023-05-03T17:50:43.002Z,31.29
2023-05-03T17:53:09.905Z,31.27
2023-05-03T17:55:38.345Z,32.28
2023-05-03T17:58:06.333Z,32.63
2023-05-03T18:00:34.012Z,32.79
2023-05-03T18:03:00.994Z,33.27
2023-05-03T18:05:27.930Z,31.45
2023-05-03T18:07:54.678Z,31.02
2023-05-03T18:10:21.377Z,31.80
2023-05-03T18:12:48.064Z,32.51
2023-05-03T18:15:15.491Z,32.46
2023-05-03T18:17:42.727Z,32.64
2023-05-03T18:20:10.200Z,31.89
2023-05-03T18:22:37.683Z,32.41
2023-05-03T18:25:07.259Z,33.03
2023-05-03T18:27:39.878Z,32.86
2023-05-03T18:30:07.442Z,32.94
2023-05-03T18:32:34.680Z,33.42
2023-05-03T18:35:03.490Z,33.42
2023-05-03T18:37:30.081Z,33.51
2023-05-03T18:39:57.369Z,33.24
2023-05-03T18:42:23.964Z,33.64
2023-05-03T18:44:50.663Z,33.26
2023-05-03T18:47:20.723Z,32.69
2023-05-03T18:49:51.858Z,33.00
2023-05-03T18:52:23.092Z,33.34
2023-05-03T18:54:50.260Z,32.73
2023-05-03T18:57:16.880Z,32.40
2023-05-03T18:59:56.616Z,33.15
2023-05-03T19:02:30.246Z,33.40
2023-05-03T19:04:56.944Z,32.73
2023-05-03T19:07:23.734Z,33.01
2023-05-03T19:09:57.779Z,33.66
2023-05-03T19:12:24.504Z,33.29
2023-05-03T19:14:51.109Z,32.72
2023-05-03T19:17:17.808Z,32.46
2023-05-03T19:19:44.468Z,32.98
2023-05-03T19:22:11.225Z,32.93
2023-05-03T19:24:43.625Z,32.62
2023-05-03T19:27:14.204Z,32.78
2023-05-03T19:29:40.731Z,32.06
2023-05-03T19:32:07.311Z,31.34
2023-05-03T19:34:35.845Z,30.56
2023-05-03T19:37:02.416Z,30.96
2023-05-03T19:39:32.692Z,30.17
2023-05-03T19:41:59.596Z,30.06
2023-05-03T19:44:28.898Z,29.46
2023-05-03T19:46:55.623Z,28.88
2023-05-03T19:49:23.930Z,29.65
2023-05-03T19:51:54.015Z,29.46
2023-05-03T19:54:20.951Z,28.61
2023-05-03T19:56:48.681Z,29.87
2023-05-03T19:59:15.615Z,29.69
2023-05-03T20:01:43.001Z,29.80
2023-05-03T20:04:09.606Z,29.53
2023-05-03T20:06:36.187Z,29.38
2023-05-03T20:09:04.419Z,30.12
2023-05-03T20:11:30.997Z,30.36
2023-05-03T20:13:57.516Z,30.30
2023-05-03T20:16:27.425Z,30.74
2023-05-03T20:18:54.107Z,30.24
2023-05-03T20:21:20.971Z,29.92
2023-05-03T20:23:49.168Z,29.45
2023-05-03T20:26:16.154Z,28.96
2023-05-03T20:28:43.748Z,28.09
2023-05-03T20:31:11.188Z,28.48
2023-05-03T20:33:37.823Z,27.88
2023-05-03T20:36:04.967Z,27.88
2023-05-03T20:38:32.020Z,28.56
2023-05-03T20:40:58.547Z,27.61
2023-05-03T20:43:25.367Z,27.18
2023-05-03T20:45:53.270Z,26.59
2023-05-03T20:48:20.581Z,27.33
2023-05-03T20:50:47.394Z,28.44
2023-05-03T20:53:14.242Z,27.47
2023-05-03T20:55:40.842Z,27.80
2023-05-03T20:58:07.393Z,27.26
2023-05-03T21:00:33.979Z,26.28
2023-05-03T21:03:00.817Z,27.32
2023-05-03T21:05:27.426Z,25.88
2023-05-03T21:07:54.013Z,26.91
2023-05-03T21:10:21.091Z,26.61
2023-05-03T21:12:47.903Z,26.64
2023-05-03T21:15:14.489Z,26.26
2023-05-03T21:17:41.151Z,26.55
2023-05-03T21:20:08.525Z,26.45
2023-05-03T21:22:35.146Z,26.51
2023-05-03T21:25:02.222Z,27.15
2023-05-03T21:27:28.879Z,27.03
2023-05-03T21:29:55.793Z,27.54
2023-05-03T21:32:22.355Z,27.62
2023-05-03T21:34:49.915Z,27.80
2023-05-03T21:37:16.841Z,27.50
2023-05-03T21:39:57.747Z,28.12
2023-05-03T21:42:27.877Z,28.16
2023-05-03T21:44:54.416Z,28.61
2023-05-03T21:47:21.513Z,28.34
2023-05-03T21:49:48.102Z,28.65
2023-05-03T21:52:14.655Z,28.15
2023-05-03T21:54:41.185Z,27.77
2023-05-03T21:57:07.703Z,28.65
2023-05-03T21:59:34.833Z,28.89
2023-05-03T22:02:01.486Z,28.20
2023-05-03T22:04:28.073Z,27.90
2023-05-03T22:06:54.821Z,28.20
2023-05-03T22:09:21.714Z,28.62
2023-05-03T22:11:48.269Z,28.76
2023-05-03T22:14:15.048Z,29.00
2023-05-03T22:16:43.304Z,27.33
2023-05-03T22:19:10.116Z,27.70
2023-05-03T22:21:36.630Z,27.61
2023-05-03T22:24:04.287Z,28.22
2023-05-03T22:26:31.182Z,27.73
2023-05-03T22:28:57.728Z,28.12
2023-05-03T22:31:24.719Z,27.21
2023-05-03T22:33:51.367Z,26.71
2023-05-03T22:36:17.964Z,26.97
2023-05-03T22:38:44.516Z,26.55
2023-05-03T22:41:11.229Z,26.92
2023-05-03T22:43:37.842Z,27.29
2023-05-03T22:46:04.550Z,27.28
2023-05-03T22:48:32.448Z,27.09
2023-05-03T22:50:59.705Z,26.65
2023-05-03T22:53:26.317Z,26.82
2023-05-03T22:56:06.477Z,26.42
2023-05-03T22:58:34.345Z,26.76
2023-05-03T23:01:01.571Z,26.96
2023-05-03T23:03:28.662Z,27.80
2023-05-03T23:05:55.704Z,27.74
2023-05-03T23:08:22.637Z,26.68
2023-05-03T23:10:49.319Z,27.32
2023-05-03T23:13:16.493Z,27.51
2023-05-03T23:15:43.115Z,27.66
2023-05-03T23:18:09.663Z,27.63
2023-05-03T23:20:36.705Z,27.36
2023-05-03T23:23:03.308Z,28.23
2023-05-03T23:25:30.160Z,28.34
2023-05-03T23:27:56.750Z,28.36
2023-05-03T23:30:24.216Z,28.81
2023-05-03T23:32:51.401Z,28.56
2023-05-03T23:35:20.754Z,29.22
2023-05-03T23:37:47.257Z,29.34
2023-05-03T23:40:14.174Z,29.38
2023-05-03T23:42:41.326Z,29.51
2023-05-03T23:45:09.528Z,29.08
2023-05-03T23:47:36.736Z,29.39
2023-05-03T23:50:03.814Z,29.70
2023-05-03T23:52:30.674Z,29.87
2023-05-03T23:54:57.209Z,29.33
2023-05-03T23:57:23.749Z,29.53
2023-05-03T23:59:50.974Z,29.78
